Time;durP1;ratioP1;P1;durP2;ratioP2;P2;SDS_P1;SDS_P2;PMS_P1;PMS_P2;Temp;Humidity;BMP_temperature;BMP_pressure;BME280_temperature;BME280_humidity;BME280_pressure;Samples;Min_cycle;Max_cycle;Signal;HPM_P1;HPM_P2
2023/12/31 00:01:16;;;;;;;2.70;1.40;;;;;;;4.16;69.95;98611.95;105933;1254;72548;-27
2023/12/31 00:03:43;;;;;;;2.40;1.30;;;;;;;4.61;68.05;98613.61;105571;1254;61160;-28
2023/12/31 00:06:10;;;;;;;2.90;0.90;;;;;;;4.68;67.34;98604.23;105676;1254;61095;-28
2023/12/31 00:08:37;;;;;;;2.30;0.80;;;;;;;4.61;67.35;98605.90;105629;1254;73798;-27
2023/12/31 00:11:04;;;;;;;3.00;1.40;;;;;;;4.40;67.81;98609.29;105556;1257;74196;-27
2023/12/31 00:13:31;;;;;;;2.50;1.00;;;;;;;4.25;68.25;98607.95;105781;1254;71686;-28
2023/12/31 00:15:58;;;;;;;5.30;1.70;;;;;;;4.05;68.81;98609.16;105634;1254;61166;-27
2023/12/31 00:18:25;;;;;;;2.30;1.30;;;;;;;3.87;69.59;98612.04;105515;1254;61113;-28
2023/12/31 00:20:51;;;;;;;4.10;1.50;;;;;;;3.69;70.21;98609.13;105540;1254;73830;-27
2023/12/31 00:23:18;;;;;;;3.50;1.40;;;;;;;3.74;70.50;98610.56;105524;1257;74210;-27
2023/12/31 00:25:45;;;;;;;2.10;1.30;;;;;;;4.43;68.32;98613.16;105557;1254;72623;-27
2023/12/31 00:28:12;;;;;;;2.10;1.30;;;;;;;4.81;66.99;98614.45;105566;1256;61099;-27
2023/12/31 00:30:39;;;;;;;3.00;1.40;;;;;;;4.85;66.60;98610.01;105593;1256;61055;-27
2023/12/31 00:33:06;;;;;;;1.70;1.10;;;;;;;4.72;66.78;98613.27;105512;1254;73733;-28
2023/12/31 00:35:33;;;;;;;3.80;1.40;;;;;;;4.55;67.06;98613.50;105535;1258;74415;-28
2023/12/31 00:38:00;;;;;;;2.70;1.10;;;;;;;4.41;67.47;98618.84;105538;1254;72412;-27
2023/12/31 00:40:29;;;;;;;2.70;1.40;;;;;;;4.23;68.17;98617.39;105607;1254;61137;-27
2023/12/31 00:42:56;;;;;;;2.80;1.30;;;;;;;4.11;68.55;98618.63;105830;1256;61156;-27
2023/12/31 00:45:23;;;;;;;2.50;1.30;;;;;;;3.99;69.03;98619.86;105792;1254;73802;-28
2023/12/31 00:47:50;;;;;;;3.10;1.20;;;;;;;4.53;68.38;98624.45;105923;1254;74244;-27
2023/12/31 00:50:19;;;;;;;2.20;1.00;;;;;;;4.95;66.73;98624.04;105809;1254;73268;-27
2023/12/31 00:52:45;;;;;;;1.70;1.20;;;;;;;4.96;66.40;98624.65;105558;1252;61042;-27
2023/12/31 00:55:13;;;;;;;3.50;1.00;;;;;;;4.77;66.58;98627.55;105801;1256;61168;-27
2023/12/31 00:57:40;;;;;;;4.80;1.60;;;;;;;4.57;67.01;98628.16;105550;1254;73787;-28
2023/12/31 01:00:07;;;;;;;2.50;1.20;;;;;;;4.38;67.82;98627.45;105520;1254;73718;-28
2023/12/31 01:02:35;;;;;;;3.80;1.30;;;;;;;4.19;68.42;98628.95;105600;1260;72672;-27
2023/12/31 01:05:02;;;;;;;3.20;1.30;;;;;;;4.03;69.01;98623.89;105778;1254;61146;-27
2023/12/31 01:07:30;;;;;;;1.50;0.80;;;;;;;3.92;69.57;98627.32;105857;1257;61641;-28
2023/12/31 01:09:57;;;;;;;4.00;0.90;;;;;;;4.38;68.81;98624.70;105913;1254;73664;-27
2023/12/31 01:12:26;;;;;;;2.10;1.30;;;;;;;4.88;66.95;98629.98;105893;1255;74118;-27
2023/12/31 01:14:52;;;;;;;3.00;1.10;;;;;;;4.97;66.23;98621.17;105779;1254;72483;-27
2023/12/31 01:17:19;;;;;;;1.00;0.90;;;;;;;4.91;66.33;98629.09;105580;1253;60985;-28
2023/12/31 01:19:46;;;;;;;2.20;1.20;;;;;;;4.66;66.92;98629.80;105544;1257;61259;-27
2023/12/31 01:22:13;;;;;;;3.50;1.30;;;;;;;4.55;67.43;98627.60;105573;1254;73515;-27
2023/12/31 01:24:40;;;;;;;1.30;0.90;;;;;;;4.39;67.78;98623.05;105759;1256;74834;-27
2023/12/31 01:27:07;;;;;;;2.10;1.20;;;;;;;4.23;68.37;98616.70;105796;1254;72667;-28
2023/12/31 01:29:37;;;;;;;3.60;1.30;;;;;;;4.09;68.95;98621.48;105620;1252;61084;-28
2023/12/31 01:32:04;;;;;;;1.80;1.00;;;;;;;3.94;69.78;98628.04;105475;1260;61201;-28
2023/12/31 01:34:31;;;;;;;4.30;1.30;;;;;;;4.37;68.55;98630.77;105517;1254;73920;-27
2023/12/31 01:37:00;;;;;;;1.90;0.90;;;;;;;4.89;66.81;98631.45;105547;1254;73091;-27
2023/12/31 01:39:27;;;;;;;2.80;1.30;;;;;;;5.00;65.89;98625.09;105562;1254;72637;-27
2023/12/31 01:41:54;;;;;;;2.40;1.40;;;;;;;4.80;66.41;98627.74;105605;1254;61176;-28
2023/12/31 01:44:21;;;;;;;2.10;0.90;;;;;;;4.60;66.89;98630.20;105712;1257;61114;-27
2023/12/31 01:46:47;;;;;;;3.80;1.40;;;;;;;4.38;67.63;98628.16;105589;1254;73547;-27
2023/12/31 01:49:14;;;;;;;4.20;1.70;;;;;;;4.19;68.27;98627.07;105526;1254;74537;-28
2023/12/31 01:51:41;;;;;;;3.60;1.40;;;;;;;4.10;68.82;98626.62;105611;1254;72449;-28
2023/12/31 01:54:08;;;;;;;4.50;1.20;;;;;;;3.95;69.33;98628.15;105604;1254;61149;-28
2023/12/31 01:56:36;;;;;;;1.80;1.00;;;;;;;3.86;69.84;98628.73;105558;1253;61240;-27
2023/12/31 01:59:03;;;;;;;1.50;0.80;;;;;;;4.60;67.83;98630.38;105317;1254;74389;-27
2023/12/31 02:01:31;;;;;;;3.20;1.10;;;;;;;5.02;66.12;98631.81;105690;1254;74248;-28
2023/12/31 02:03:57;;;;;;;3.20;1.30;;;;;;;5.03;65.26;98628.01;105464;1254;70782;-27
2023/12/31 02:06:26;;;;;;;3.70;1.20;;;;;;;4.83;65.75;98629.23;105923;1257;61208;-27
2023/12/31 02:08:53;;;;;;;3.00;1.40;;;;;;;4.71;65.97;98632.45;105818;1256;61051;-28
2023/12/31 02:11:20;;;;;;;6.00;1.50;;;;;;;4.47;66.57;98628.97;105840;1254;73895;-28
2023/12/31 02:13:47;;;;;;;5.30;1.20;;;;;;;4.24;67.16;98625.05;105823;1254;73322;-28
2023/12/31 02:16:14;;;;;;;4.50;1.10;;;;;;;4.01;67.84;98618.69;105772;1254;72428;-27
2023/12/31 02:18:42;;;;;;;2.50;1.30;;;;;;;3.88;68.55;98624.51;105496;1254;61048;-27
2023/12/31 02:21:09;;;;;;;2.50;1.00;;;;;;;3.75;69.14;98620.77;105585;1256;61147;-27
2023/12/31 02:23:36;;;;;;;6.20;1.40;;;;;;;3.81;69.42;98620.23;105669;1254;73769;-28
2023/12/31 02:26:10;;;;;;;1.70;1.10;;;;;;;4.45;67.46;98625.11;105603;1254;74295;-27
2023/12/31 02:28:39;;;;;;;2.60;1.20;;;;;;;4.71;65.95;98625.88;105878;1254;71423;-27
2023/12/31 02:31:06;;;;;;;3.40;0.90;;;;;;;4.55;66.09;98621.41;105851;1254;61130;-27
2023/12/31 02:33:34;;;;;;;1.80;1.20;;;;;;;4.39;66.34;98620.69;105530;1257;61106;-28
2023/12/31 02:36:04;;;;;;;2.60;1.20;;;;;;;4.19;66.82;98616.55;105446;1254;195971;-28
2023/12/31 02:38:31;;;;;;;4.20;1.20;;;;;;;4.07;67.14;98620.39;105874;1254;74348;-27
2023/12/31 02:40:58;;;;;;;2.20;1.20;;;;;;;4.02;67.41;98627.73;105799;1253;72528;-27
2023/12/31 02:43:25;;;;;;;2.60;1.30;;;;;;;3.91;67.85;98628.92;105635;1256;61034;-27
2023/12/31 02:45:51;;;;;;;1.30;0.80;;;;;;;3.84;68.06;98630.41;105631;1257;61157;-27
2023/12/31 02:48:18;;;;;;;1.70;0.90;;;;;;;4.27;66.67;98628.98;105602;1254;73830;-28
2023/12/31 02:50:45;;;;;;;1.30;0.90;;;;;;;4.73;64.91;98630.23;105577;1255;74762;-27
2023/12/31 02:53:12;;;;;;;1.60;1.00;;;;;;;4.84;64.21;98636.73;105689;1254;72312;-27
2023/12/31 02:55:39;;;;;;;2.40;1.10;;;;;;;4.74;64.19;98636.90;105653;1254;61114;-28
2023/12/31 02:58:06;;;;;;;2.30;1.20;;;;;;;4.49;64.88;98645.64;105820;1257;61154;-27
2023/12/31 03:00:33;;;;;;;2.20;1.00;;;;;;;4.33;65.40;98644.95;105936;1255;72580;-27
2023/12/31 03:03:00;;;;;;;3.00;1.40;;;;;;;4.05;66.07;98637.37;105705;1254;74818;-27
2023/12/31 03:05:28;;;;;;;4.10;0.80;;;;;;;3.98;66.46;98638.99;105766;1254;73046;-28
2023/12/31 03:07:55;;;;;;;2.00;0.80;;;;;;;3.86;66.84;98638.34;105691;1254;61081;-28
2023/12/31 03:10:22;;;;;;;2.40;0.80;;;;;;;3.73;67.52;98643.92;105621;1256;61279;-27
2023/12/31 03:12:49;;;;;;;3.20;1.00;;;;;;;4.07;66.52;98641.51;105616;1254;73566;-27
2023/12/31 03:15:18;;;;;;;3.20;1.60;;;;;;;4.46;64.81;98649.77;105943;1254;74103;-27
2023/12/31 03:17:45;;;;;;;1.40;0.90;;;;;;;4.50;64.50;98652.48;105719;1254;72635;-28
2023/12/31 03:20:12;;;;;;;2.60;1.50;;;;;;;4.33;64.94;98653.16;105606;1253;61147;-27
2023/12/31 03:22:39;;;;;;;1.50;1.00;;;;;;;4.18;65.27;98659.08;105535;1256;61103;-27
2023/12/31 03:25:10;;;;;;;2.50;0.90;;;;;;;4.01;65.85;98664.92;105633;1254;73620;-27
2023/12/31 03:27:37;;;;;;;2.10;1.10;;;;;;;3.83;66.41;98662.19;105679;1254;74233;-28
2023/12/31 03:30:05;;;;;;;2.00;1.30;;;;;;;3.71;66.96;98664.13;105556;1253;72754;-28
2023/12/31 03:32:33;;;;;;;1.70;1.20;;;;;;;3.54;67.41;98662.85;105463;1254;61058;-27
2023/12/31 03:35:01;;;;;;;2.00;0.90;;;;;;;3.37;68.29;98658.35;105516;1257;61156;-27
2023/12/31 03:37:27;;;;;;;1.30;0.90;;;;;;;3.77;67.39;98662.73;105593;1254;73832;-27
2023/12/31 03:39:54;;;;;;;2.00;1.00;;;;;;;4.22;65.75;98666.94;105621;1254;74499;-27
2023/12/31 03:42:22;;;;;;;3.20;1.60;;;;;;;4.23;65.33;98664.61;105643;1254;72680;-27
2023/12/31 03:44:49;;;;;;;2.40;1.30;;;;;;;4.09;65.85;98667.38;105462;1253;61052;-28
2023/12/31 03:47:16;;;;;;;1.50;0.80;;;;;;;3.96;66.02;98666.42;105511;1257;61404;-28
2023/12/31 03:49:42;;;;;;;1.50;1.00;;;;;;;3.81;66.60;98661.84;105628;1254;73751;-27
2023/12/31 03:52:10;;;;;;;3.00;1.40;;;;;;;3.57;67.35;98669.23;105531;1257;72602;-27
2023/12/31 03:54:59;;;;;;;4.00;2.50;;;;;;;3.36;68.03;98669.39;102718;1290;601145;-26
2023/12/31 03:57:28;;;;;;;3.00;1.10;;;;;;;3.31;68.05;98669.36;105099;1269;61238;-25
2023/12/31 03:59:56;;;;;;;2.50;0.80;;;;;;;3.22;68.31;98667.78;105041;1270;61179;-27
2023/12/31 04:02:23;;;;;;;1.50;0.80;;;;;;;3.68;67.26;98669.26;105031;1267;71026;-28
2023/12/31 04:12:27;;;;;;;3.70;1.20;;;;;;;3.76;66.64;98667.95;102690;1292;599504;-25
2023/12/31 04:14:55;;;;;;;1.90;1.00;;;;;;;3.60;67.33;98673.71;105180;1263;61087;-25
2023/12/31 04:17:23;;;;;;;3.00;1.20;;;;;;;3.43;68.22;98670.05;105188;1269;61225;-28
2023/12/31 04:27:35;;;;;;;2.20;1.50;;;;;;;4.26;66.39;98675.94;103146;1285;599057;-25
2023/12/31 04:30:04;;;;;;;2.80;1.00;;;;;;;4.25;66.10;98679.60;105154;1268;61169;-25
2023/12/31 04:32:32;;;;;;;2.50;1.20;;;;;;;4.08;66.47;98683.40;104884;1267;61065;-26
2023/12/31 04:34:59;;;;;;;2.00;1.00;;;;;;;3.98;67.17;98680.39;104913;1271;71012;-27
2023/12/31 04:37:27;;;;;;;3.10;1.40;;;;;;;3.83;67.57;98682.63;104847;1267;73099;-27
2023/12/31 04:39:55;;;;;;;3.40;1.20;;;;;;;3.74;67.95;98683.52;104821;1267;71448;-27
2023/12/31 04:42:22;;;;;;;3.90;1.40;;;;;;;3.66;68.14;98686.04;104865;1264;359568;-27
2023/12/31 04:44:50;;;;;;;3.30;0.80;;;;;;;3.57;68.70;98687.63;105146;1270;61199;-28
2023/12/31 04:47:20;;;;;;;3.40;1.00;;;;;;;3.93;68.02;98684.95;104836;1269;72244;-28
2023/12/31 04:57:24;;;;;;;1.70;1.20;;;;;;;4.11;66.54;98700.23;102747;1290;600196;-25
2023/12/31 04:59:51;;;;;;;4.80;1.30;;;;;;;3.95;66.85;98703.59;105177;1269;61370;-26
2023/12/31 05:09:58;;;;;;;1.30;0.70;;;;;;;3.53;68.72;98706.73;102668;1292;598786;-26
2023/12/31 05:12:25;;;;;;;6.60;1.70;;;;;;;4.06;67.05;98704.44;104852;1269;61161;-28
2023/12/31 05:14:54;;;;;;;4.00;1.70;;;;;;;4.35;65.71;98710.11;104905;1270;61148;-28
2023/12/31 05:17:22;;;;;;;2.20;1.30;;;;;;;4.29;65.55;98719.09;104860;1269;70998;-28
2023/12/31 05:19:49;;;;;;;4.50;1.90;;;;;;;4.18;65.91;98720.92;104857;1267;74742;-28
2023/12/31 05:22:18;;;;;;;2.40;1.50;;;;;;;3.90;66.65;98728.80;104904;1266;71580;-28
2023/12/31 05:24:46;;;;;;;4.80;1.40;;;;;;;3.72;67.25;98730.86;104779;1263;194505;-28
2023/12/31 05:34:54;;;;;;;2.40;1.40;;;;;;;3.03;69.41;98741.05;102740;1295;598725;-25
2023/12/31 05:37:22;;;;;;;3.10;1.50;;;;;;;3.49;68.69;98745.70;104830;1269;61194;-26
2023/12/31 05:39:50;;;;;;;4.30;1.60;;;;;;;4.05;66.57;98745.75;105481;1258;61201;-26
2023/12/31 05:50:14;;;;;;;3.70;1.60;;;;;;;3.59;67.35;98746.50;102476;1292;615260;-28
2023/12/31 05:52:42;;;;;;;3.70;1.70;;;;;;;3.37;67.89;98750.02;104984;1266;61175;-28
2023/12/31 05:55:09;;;;;;;5.70;1.90;;;;;;;3.21;68.42;98751.89;104990;1267;61076;-28
2023/12/31 05:57:35;;;;;;;2.50;1.50;;;;;;;3.10;68.70;98752.86;104934;1270;72035;-28
2023/12/31 06:00:05;;;;;;;5.20;1.70;;;;;;;2.98;69.06;98754.56;104945;1266;74402;-28
2023/12/31 06:02:38;;;;;;;3.70;1.40;;;;;;;2.89;69.26;98756.07;104714;1266;157282;-28
2023/12/31 06:05:06;;;;;;;2.90;1.60;;;;;;;3.40;69.02;98758.57;105191;1262;61094;-28
2023/12/31 06:07:34;;;;;;;3.80;1.70;;;;;;;4.11;67.19;98762.10;104880;1262;61123;-28
2023/12/31 06:10:01;;;;;;;4.60;1.80;;;;;;;4.31;66.30;98759.84;105230;1263;72831;-28
2023/12/31 06:12:28;;;;;;;2.30;1.50;;;;;;;4.24;65.99;98766.27;105240;1263;74117;-29
2023/12/31 06:14:55;;;;;;;3.40;1.40;;;;;;;4.07;66.22;98762.16;104824;1262;72666;-28
2023/12/31 06:17:21;;;;;;;2.70;1.50;;;;;;;3.90;66.53;98764.70;105126;1265;61167;-28
2023/12/31 06:19:48;;;;;;;3.90;1.30;;;;;;;3.73;66.74;98765.50;105155;1263;61116;-28
2023/12/31 06:22:16;;;;;;;3.30;1.90;;;;;;;3.54;67.35;98766.73;105139;1263;73005;-28
2023/12/31 06:24:43;;;;;;;4.90;1.80;;;;;;;3.45;67.76;98767.24;105158;1263;74400;-28
2023/12/31 06:27:09;;;;;;;4.10;2.20;;;;;;;3.34;68.25;98767.85;105140;1263;72690;-28
2023/12/31 06:29:36;;;;;;;2.50;1.20;;;;;;;3.32;68.70;98770.52;105107;1262;61164;-28
2023/12/31 06:32:04;;;;;;;2.30;1.50;;;;;;;3.98;68.06;98774.53;105065;1267;61196;-28
2023/12/31 06:34:31;;;;;;;2.90;1.60;;;;;;;4.63;65.93;98781.17;105101;1265;73064;-28
2023/12/31 06:36:58;;;;;;;5.60;2.00;;;;;;;4.76;65.14;98785.37;105012;1263;74412;-28
2023/12/31 06:39:25;;;;;;;3.00;1.70;;;;;;;4.63;65.22;98783.23;105111;1263;74236;-28
2023/12/31 06:41:51;;;;;;;2.50;1.70;;;;;;;4.43;65.55;98783.91;105176;1263;61203;-28
2023/12/31 06:44:18;;;;;;;4.00;1.70;;;;;;;4.20;66.08;98786.42;105138;1264;61154;-26
2023/12/31 06:46:45;;;;;;;3.40;1.60;;;;;;;3.97;66.82;98785.36;105163;1264;73003;-25
2023/12/31 06:49:13;;;;;;;2.80;1.50;;;;;;;3.84;66.96;98788.52;105169;1261;74340;-25
2023/12/31 06:51:40;;;;;;;3.10;1.70;;;;;;;3.71;67.56;98789.98;105215;1260;72652;-27
2023/12/31 06:54:07;;;;;;;2.10;1.50;;;;;;;3.64;67.83;98789.50;105067;1261;61067;-30
2023/12/31 06:56:33;;;;;;;3.20;1.40;;;;;;;3.58;67.77;98786.58;105135;1260;61152;-28
2023/12/31 06:59:00;;;;;;;3.70;1.80;;;;;;;4.14;67.50;98792.44;105199;1261;73052;-28
2023/12/31 07:01:28;;;;;;;5.00;1.70;;;;;;;4.82;65.62;98793.06;105118;1263;74341;-28
2023/12/31 07:03:55;;;;;;;5.40;1.40;;;;;;;4.96;64.65;98795.14;105221;1260;72052;-28
2023/12/31 07:06:22;;;;;;;3.30;1.40;;;;;;;4.87;64.46;98799.83;105041;1261;61208;-28
2023/12/31 07:08:49;;;;;;;4.00;1.50;;;;;;;4.68;64.87;98797.85;105054;1265;61167;-26
2023/12/31 07:11:16;;;;;;;2.80;1.60;;;;;;;4.51;65.25;98801.96;105216;1261;72818;-25
2023/12/31 07:13:43;;;;;;;3.30;1.80;;;;;;;4.38;65.60;98803.44;105250;1260;74439;-27
2023/12/31 07:16:10;;;;;;;2.40;1.30;;;;;;;4.27;65.83;98803.94;105212;1262;73069;-28
2023/12/31 07:18:37;;;;;;;3.40;2.00;;;;;;;4.19;66.15;98811.41;105180;1260;61061;-28
2023/12/31 07:21:05;;;;;;;2.90;1.50;;;;;;;4.09;66.59;98812.56;105078;1261;61191;-28
2023/12/31 07:23:33;;;;;;;4.10;2.00;;;;;;;3.98;66.84;98809.88;105115;1260;73071;-28
2023/12/31 07:26:00;;;;;;;3.90;1.80;;;;;;;3.90;67.20;98816.04;105215;1260;74401;-28
2023/12/31 07:28:27;;;;;;;2.80;1.40;;;;;;;3.81;67.36;98818.75;105218;1261;72746;-28
2023/12/31 07:30:54;;;;;;;3.70;1.70;;;;;;;4.33;67.23;98821.58;105069;1260;61065;-28
2023/12/31 07:33:21;;;;;;;3.20;1.70;;;;;;;5.06;65.07;98822.73;105072;1260;61144;-27
2023/12/31 07:35:50;;;;;;;3.00;1.60;;;;;;;5.25;64.30;98822.44;105064;1261;73026;-28
2023/12/31 07:38:16;;;;;;;3.70;1.70;;;;;;;5.28;64.04;98823.42;105663;1257;75178;-28
2023/12/31 07:40:43;;;;;;;7.10;2.30;;;;;;;5.28;63.82;98824.99;105663;1253;72841;-28
2023/12/31 07:43:12;;;;;;;3.70;1.80;;;;;;;5.28;64.13;98828.77;105785;1254;61138;-28
2023/12/31 07:45:38;;;;;;;5.40;2.20;;;;;;;5.13;64.86;98826.73;105817;1253;61167;-27
2023/12/31 07:48:09;;;;;;;5.80;2.40;;;;;;;5.07;65.12;98828.34;105713;1253;72934;-28
2023/12/31 07:50:36;;;;;;;3.50;1.70;;;;;;;4.93;66.03;98829.73;105677;1253;73320;-28
2023/12/31 07:53:03;;;;;;;5.20;2.30;;;;;;;4.81;66.61;98838.69;105846;1253;72481;-28
2023/12/31 07:55:30;;;;;;;3.90;2.20;;;;;;;4.66;67.44;98836.89;105761;1253;60995;-27
2023/12/31 07:57:58;;;;;;;4.50;2.40;;;;;;;4.49;68.63;98839.05;105834;1257;61139;-28
2023/12/31 08:00:26;;;;;;;5.20;2.30;;;;;;;4.67;69.25;98842.48;105531;1253;72793;-28
2023/12/31 08:02:53;;;;;;;2.60;1.70;;;;;;;5.14;68.43;98844.06;105875;1253;73194;-28
2023/12/31 08:05:19;;;;;;;3.90;2.10;;;;;;;5.38;67.88;98853.29;105809;1253;72914;-28
2023/12/31 08:07:47;;;;;;;6.10;2.50;;;;;;;5.30;68.33;98851.20;105554;1258;61785;-28
2023/12/31 08:10:14;;;;;;;5.60;3.00;;;;;;;5.19;68.79;98854.11;105735;1254;61101;-28
2023/12/31 08:12:42;;;;;;;5.00;2.40;;;;;;;5.16;69.24;98862.90;105858;1253;71844;-28
2023/12/31 08:15:09;;;;;;;5.30;2.30;;;;;;;5.11;69.60;98863.54;105678;1256;73011;-28
2023/12/31 08:17:36;;;;;;;4.80;2.60;;;;;;;5.05;69.82;98862.54;105892;1253;72694;-25
2023/12/31 08:20:03;;;;;;;5.00;2.10;;;;;;;5.00;69.73;98858.88;105895;1253;61148;-25
2023/12/31 08:22:30;;;;;;;4.80;2.90;;;;;;;4.99;70.30;98869.29;105700;1253;61225;-28
2023/12/31 08:24:57;;;;;;;7.60;3.00;;;;;;;5.30;69.32;98866.17;105864;1253;73755;-27
2023/12/31 08:27:24;;;;;;;6.80;3.50;;;;;;;5.68;68.40;98874.30;105836;1254;74303;-25
2023/12/31 08:29:51;;;;;;;6.40;3.90;;;;;;;5.50;68.32;98864.90;105857;1253;72514;-25
2023/12/31 08:32:19;;;;;;;8.80;3.50;;;;;;;5.32;68.81;98856.24;105738;1253;61144;-27
2023/12/31 08:34:46;;;;;;;7.40;3.40;;;;;;;4.90;70.59;98861.18;105832;1257;61119;-28
2023/12/31 08:37:13;;;;;;;6.40;3.20;;;;;;;4.82;71.35;98869.80;105827;1257;73341;-25
2023/12/31 08:39:41;;;;;;;8.20;4.00;;;;;;;4.85;71.10;98864.27;105844;1252;74309;-28
2023/12/31 08:42:08;;;;;;;6.80;3.20;;;;;;;4.77;71.42;98873.88;105839;1253;72611;-25
2023/12/31 08:44:35;;;;;;;5.50;2.40;;;;;;;5.23;69.94;98866.91;105869;1252;61134;-26
2023/12/31 08:47:12;;;;;;;7.00;2.90;;;;;;;5.40;68.32;98875.83;105858;1253;61049;-27
2023/12/31 08:49:39;;;;;;;4.60;2.60;;;;;;;5.36;68.52;98877.98;105785;1253;73015;-28
2023/12/31 08:52:06;;;;;;;8.70;3.70;;;;;;;5.29;68.88;98875.16;105618;1253;74315;-28
2023/12/31 08:54:33;;;;;;;7.40;3.70;;;;;;;5.18;69.07;98877.40;105755;1253;72706;-26
2023/12/31 08:57:00;;;;;;;7.70;2.80;;;;;;;4.95;68.97;98875.70;105717;1253;61066;-27
2023/12/31 08:59:27;;;;;;;6.00;2.30;;;;;;;4.86;68.72;98871.38;105554;1252;61283;-28
2023/12/31 09:01:54;;;;;;;8.20;3.10;;;;;;;4.93;68.09;98872.55;105768;1253;72968;-26
2023/12/31 09:04:20;;;;;;;4.00;2.30;;;;;;;4.96;67.59;98880.46;105847;1253;74319;-26
2023/12/31 09:06:48;;;;;;;3.20;2.10;;;;;;;4.99;68.03;98877.50;105764;1253;73174;-26
2023/12/31 09:09:15;;;;;;;3.90;2.40;;;;;;;5.42;66.55;98875.20;105578;1253;61141;-25
2023/12/31 09:11:42;;;;;;;6.10;2.50;;;;;;;5.25;66.60;98873.52;105784;1257;61164;-26
2023/12/31 09:14:09;;;;;;;6.50;3.40;;;;;;;5.10;66.89;98872.76;105763;1252;72909;-25
2023/12/31 09:16:35;;;;;;;5.50;2.40;;;;;;;5.19;66.51;98867.51;105833;1253;74327;-28
2023/12/31 09:19:03;;;;;;;5.40;2.50;;;;;;;5.18;66.96;98876.02;105907;1253;72708;-27
2023/12/31 09:21:31;;;;;;;3.00;1.90;;;;;;;5.09;67.03;98875.73;105843;1253;61089;-27
2023/12/31 09:23:57;;;;;;;5.80;3.30;;;;;;;5.01;67.51;98875.18;105709;1256;61057;-27
2023/12/31 09:26:24;;;;;;;6.00;3.30;;;;;;;4.84;68.22;98868.98;105775;1253;72971;-27
2023/12/31 09:28:51;;;;;;;9.10;3.10;;;;;;;4.80;68.50;98875.04;105830;1253;74360;-27
2023/12/31 09:31:20;;;;;;;4.40;2.30;;;;;;;4.74;68.41;98868.89;105588;1253;73099;-27
2023/12/31 09:33:47;;;;;;;5.30;2.50;;;;;;;4.96;67.81;98867.58;105685;1253;61641;-27
2023/12/31 09:36:15;;;;;;;5.30;2.60;;;;;;;5.39;66.26;98866.28;105694;1253;61161;-27
2023/12/31 09:38:43;;;;;;;5.10;2.80;;;;;;;5.60;66.43;98875.99;105781;1253;72879;-30
2023/12/31 09:41:15;;;;;;;4.90;2.80;;;;;;;6.04;64.82;98872.69;105850;1257;74283;-27
2023/12/31 09:43:41;;;;;;;5.10;2.50;;;;;;;6.10;64.57;98862.84;105643;1257;71301;-27
2023/12/31 09:46:08;;;;;;;5.00;3.30;;;;;;;6.13;64.16;98864.69;105765;1253;61129;-27
2023/12/31 09:48:37;;;;;;;5.30;2.90;;;;;;;5.96;65.06;98862.71;105693;1261;61538;-27
2023/12/31 09:51:05;;;;;;;9.70;4.00;;;;;;;6.08;64.56;98863.32;105788;1253;72814;-27
2023/12/31 09:53:32;;;;;;;7.10;2.90;;;;;;;5.97;64.81;98861.91;105852;1253;74183;-27
2023/12/31 09:55:59;;;;;;;6.50;3.60;;;;;;;5.88;65.14;98861.81;105750;1253;73244;-27
2023/12/31 09:58:26;;;;;;;5.30;3.20;;;;;;;5.79;66.30;98867.92;105799;1253;61145;-27
2023/12/31 10:00:52;;;;;;;7.00;2.90;;;;;;;5.37;68.36;98860.20;105836;1259;61130;-27
2023/12/31 10:03:20;;;;;;;4.30;2.80;;;;;;;5.93;67.26;98860.81;105784;1253;74212;-27
2023/12/31 10:05:48;;;;;;;5.30;3.00;;;;;;;5.97;65.01;98857.98;105910;1257;74337;-30
2023/12/31 10:08:16;;;;;;;4.70;1.80;;;;;;;5.85;64.90;98848.88;105756;1259;72793;-27
2023/12/31 10:10:42;;;;;;;6.70;3.00;;;;;;;6.02;64.35;98853.68;105753;1259;61255;-27
2023/12/31 10:13:14;;;;;;;8.70;3.20;;;;;;;5.96;65.26;98860.98;105810;1255;61135;-27
2023/12/31 10:15:41;;;;;;;5.40;2.30;;;;;;;5.81;65.13;98850.23;105694;1254;72851;-27
2023/12/31 10:18:09;;;;;;;7.20;2.50;;;;;;;5.68;65.50;98842.95;105870;1254;74412;-27
2023/12/31 10:20:37;;;;;;;7.50;2.70;;;;;;;5.84;65.66;98847.62;105767;1253;73159;-27
2023/12/31 10:23:04;;;;;;;5.40;2.30;;;;;;;6.03;65.20;98840.73;105790;1257;61092;-27
2023/12/31 10:25:32;;;;;;;3.90;2.40;;;;;;;6.32;64.65;98841.37;105819;1258;61217;-27
2023/12/31 10:27:59;;;;;;;5.10;2.60;;;;;;;6.59;63.00;98833.89;105702;1253;73823;-27
2023/12/31 10:30:27;;;;;;;6.70;2.70;;;;;;;6.68;62.84;98831.02;105875;1253;74729;-27
2023/12/31 10:32:54;;;;;;;6.40;3.00;;;;;;;6.93;62.38;98825.38;105679;1254;72476;-28
2023/12/31 10:35:21;;;;;;;2.70;1.80;;;;;;;7.03;62.02;98830.00;105703;1254;62660;-27
2023/12/31 10:38:01;;;;;;;5.60;2.40;;;;;;;7.16;61.07;98820.96;105880;1259;61049;-27
2023/12/31 10:40:28;;;;;;;4.90;2.70;;;;;;;7.22;60.60;98821.09;105684;1253;72749;-27
2023/12/31 10:42:58;;;;;;;6.80;3.00;;;;;;;7.18;61.18;98821.35;105848;1253;74207;-27
2023/12/31 10:45:26;;;;;;;5.90;2.90;;;;;;;7.19;61.02;98823.69;105828;1253;72653;-27
2023/12/31 10:47:56;;;;;;;7.20;3.00;;;;;;;7.25;60.64;98817.77;105668;1253;61138;-27
2023/12/31 10:50:24;;;;;;;6.40;2.70;;;;;;;7.31;60.62;98821.28;105861;1259;61813;-27
2023/12/31 10:52:53;;;;;;;5.30;3.00;;;;;;;7.35;60.82;98814.16;105695;1253;73847;-27
2023/12/31 10:55:20;;;;;;;5.50;3.10;;;;;;;7.15;60.54;98807.94;105707;1253;73130;-27
2023/12/31 10:57:47;;;;;;;8.30;3.30;;;;;;;7.04;60.90;98813.85;105784;1253;73117;-27
2023/12/31 11:00:15;;;;;;;6.70;2.80;;;;;;;7.42;59.85;98809.52;105587;1253;61113;-27
2023/12/31 11:02:46;;;;;;;5.30;2.80;;;;;;;7.59;59.33;98808.96;105699;1258;61097;-27
2023/12/31 11:05:14;;;;;;;3.90;2.30;;;;;;;7.66;58.30;98803.10;105723;1253;74452;-27
2023/12/31 11:07:40;;;;;;;7.80;2.10;;;;;;;7.50;58.55;98799.06;105863;1253;73234;-27
2023/12/31 11:10:08;;;;;;;5.90;2.50;;;;;;;7.42;58.60;98804.30;105885;1254;72442;-27
2023/12/31 11:12:36;;;;;;;4.00;2.40;;;;;;;7.52;58.93;98816.02;105660;1253;61109;-27
2023/12/31 11:15:06;;;;;;;3.40;2.70;;;;;;;7.53;58.81;98816.81;105632;1259;61366;-27
2023/12/31 11:18:24;;;;;;;6.10;2.50;;;;;;;7.51;58.47;98814.89;105757;1253;74171;-27
2023/12/31 11:21:14;;;;;;;5.00;2.00;;;;;;;7.27;58.31;98808.83;105374;1265;74963;-27
2023/12/31 11:23:50;;;;;;;5.80;2.50;;;;;;;6.86;59.62;98812.00;105091;1259;72481;-26
2023/12/31 11:26:17;;;;;;;5.50;2.90;;;;;;;6.50;60.84;98810.69;105153;1262;61077;-26
2023/12/31 11:28:50;;;;;;;4.80;2.30;;;;;;;6.52;61.19;98808.85;105081;1264;61827;-26
2023/12/31 11:31:20;;;;;;;4.60;2.30;;;;;;;6.69;60.64;98809.27;105075;1266;73670;-26
2023/12/31 11:33:47;;;;;;;5.00;2.70;;;;;;;6.73;60.16;98813.13;105099;1259;74495;-26
2023/12/31 11:36:16;;;;;;;6.10;2.30;;;;;;;6.57;60.34;98811.92;105103;1259;71579;-26
2023/12/31 11:38:56;;;;;;;6.70;2.60;;;;;;;6.75;60.80;98813.30;105100;1265;61235;-26
2023/12/31 11:41:24;;;;;;;4.40;2.50;;;;;;;7.04;60.02;98818.23;105225;1259;61755;-26
2023/12/31 11:43:51;;;;;;;3.90;2.10;;;;;;;7.06;59.22;98814.24;105255;1259;73864;-26
2023/12/31 11:46:38;;;;;;;4.10;2.00;;;;;;;6.94;59.78;98810.09;105198;1264;74328;-26
2023/12/31 11:49:07;;;;;;;3.70;2.10;;;;;;;7.06;59.27;98809.27;105028;1263;71601;-26
2023/12/31 11:51:53;;;;;;;5.90;2.50;;;;;;;6.98;59.42;98804.15;105336;1254;61153;-26
2023/12/31 11:54:40;;;;;;;3.70;2.20;;;;;;;6.97;59.10;98800.39;105529;1258;61174;-26
2023/12/31 11:57:08;;;;;;;3.30;1.80;;;;;;;7.00;59.28;98802.77;105783;1253;73814;-26
2023/12/31 11:59:39;;;;;;;4.30;2.00;;;;;;;7.01;58.65;98793.92;105792;1258;74047;-27
2023/12/31 12:02:07;;;;;;;3.70;1.70;;;;;;;6.93;58.42;98786.17;105643;1254;72447;-26
2023/12/31 12:04:35;;;;;;;4.80;2.30;;;;;;;6.95;58.52;98791.05;105788;1257;61183;-27
2023/12/31 12:07:03;;;;;;;2.80;1.70;;;;;;;7.05;58.70;98791.73;105845;1253;61144;-26
2023/12/31 12:09:31;;;;;;;3.60;1.70;;;;;;;6.87;57.94;98782.49;105692;1254;73854;-26
2023/12/31 12:12:02;;;;;;;5.10;1.80;;;;;;;6.81;58.12;98786.36;105798;1253;73141;-26
2023/12/31 12:14:33;;;;;;;3.90;1.90;;;;;;;6.83;57.92;98793.81;105632;1253;72546;-26
2023/12/31 12:17:00;;;;;;;3.90;2.10;;;;;;;6.69;58.57;98785.25;105912;1252;61114;-26
2023/12/31 12:19:28;;;;;;;3.90;1.90;;;;;;;6.63;58.69;98791.17;105690;1258;61103;-27
2023/12/31 12:21:57;;;;;;;2.80;1.80;;;;;;;6.45;58.68;98791.89;105488;1253;73633;-26
2023/12/31 12:24:24;;;;;;;5.40;1.80;;;;;;;6.47;59.03;98794.16;105816;1253;73344;-26